Time;durP1;ratioP1;P1;durP2;ratioP2;P2;SDS_P1;SDS_P2;PMS_P1;PMS_P2;Temp;Humidity;BMP_temperature;BMP_pressure;BME280_temperature;BME280_humidity;BME280_pressure;Samples;Min_cycle;Max_cycle;Signal;HPM_P1;HPM_P2
2022/09/02 00:02:12;;;;;;;1.90;1.30;;;;;;;12.25;70.74;98839.29;105310;1281;22600;-68
2022/09/02 00:04:39;;;;;;;1.10;0.80;;;;;;;12.22;70.92;98836.95;105291;1281;22602;-68
2022/09/02 00:07:06;;;;;;;1.30;1.10;;;;;;;12.22;70.66;98837.11;105205;1281;138494;-68
2022/09/02 00:09:33;;;;;;;1.10;1.00;;;;;;;12.20;70.99;98836.00;105343;1281;24935;-68
2022/09/02 00:12:00;;;;;;;2.40;1.30;;;;;;;12.19;71.02;98837.88;105186;1281;138156;-68
2022/09/02 00:14:31;;;;;;;2.20;1.20;;;;;;;12.18;70.88;98841.56;105332;1281;22535;-68
2022/09/02 00:16:59;;;;;;;2.90;1.20;;;;;;;12.16;70.85;98842.02;105238;1281;137845;-67
2022/09/02 00:19:28;;;;;;;3.20;1.30;;;;;;;12.12;70.99;98843.16;105293;1283;23960;-68
2022/09/02 00:21:57;;;;;;;3.40;1.40;;;;;;;12.09;71.14;98838.80;105398;1281;22725;-68
2022/09/02 00:24:24;;;;;;;2.80;1.00;;;;;;;12.08;71.07;98841.66;105235;1281;138299;-67
2022/09/02 00:26:51;;;;;;;1.40;1.20;;;;;;;12.05;71.24;98839.16;105291;1281;24251;-67
2022/09/02 00:29:18;;;;;;;4.80;1.60;;;;;;;12.04;71.20;98842.20;105200;1281;138269;-68
2022/09/02 00:31:46;;;;;;;2.80;1.30;;;;;;;12.03;71.36;98839.67;105303;1281;25248;-67
2022/09/02 00:34:14;;;;;;;3.30;1.10;;;;;;;12.03;71.49;98843.88;105374;1281;22534;-68
2022/09/02 00:36:41;;;;;;;2.70;1.20;;;;;;;12.03;71.79;98842.06;105215;1281;137666;-68
2022/09/02 00:39:08;;;;;;;2.30;1.30;;;;;;;12.02;71.62;98837.64;105328;1281;22589;-68
2022/09/02 00:41:38;;;;;;;1.00;0.90;;;;;;;12.00;71.66;98836.45;104059;1281;1602719;-67
2022/09/02 00:44:11;;;;;;;1.60;1.20;;;;;;;12.01;71.94;98835.15;105360;1281;22593;-67
2022/09/02 00:46:39;;;;;;;2.10;1.10;;;;;;;12.02;71.86;98835.33;105334;1281;22894;-67
2022/09/02 00:49:23;;;;;;;2.30;1.00;;;;;;;12.03;71.82;98829.89;105241;1281;138304;-67
2022/09/02 00:52:09;;;;;;;1.90;1.20;;;;;;;12.04;71.79;98829.02;105326;1281;25252;-67
2022/09/02 00:54:44;;;;;;;3.00;1.30;;;;;;;12.04;71.59;98828.17;105382;1281;137621;-67
2022/09/02 00:57:18;;;;;;;1.70;1.20;;;;;;;12.04;71.72;98827.09;105229;1282;25499;-67
2022/09/02 00:59:57;;;;;;;2.40;0.90;;;;;;;12.05;71.67;98826.66;104941;1282;137886;-67
2022/09/02 01:02:27;;;;;;;1.40;1.10;;;;;;;12.03;71.40;98825.09;104984;1282;24976;-67
2022/09/02 01:04:55;;;;;;;1.40;1.00;;;;;;;12.03;71.57;98824.05;104920;1282;138910;-67
2022/09/02 01:07:24;;;;;;;2.90;1.20;;;;;;;12.04;71.29;98827.68;104994;1283;25363;-68
2022/09/02 01:09:57;;;;;;;2.60;1.30;;;;;;;12.05;71.66;98829.67;105005;1283;22558;-67
2022/09/02 01:12:25;;;;;;;2.00;1.20;;;;;;;12.07;71.48;98832.11;105230;1283;137702;-67
2022/09/02 01:14:52;;;;;;;2.90;1.20;;;;;;;12.06;71.09;98830.08;104966;1283;25396;-67
2022/09/02 01:17:19;;;;;;;4.30;1.70;;;;;;;12.05;71.52;98831.31;105009;1282;137866;-67
2022/09/02 01:19:55;;;;;;;1.60;0.90;;;;;;;12.04;71.57;98831.94;104934;1283;24353;-67
2022/09/02 01:22:28;;;;;;;1.10;0.90;;;;;;;12.01;71.72;98832.96;105024;1282;22557;-68
2022/09/02 01:24:59;;;;;;;2.10;1.30;;;;;;;11.98;71.90;98829.92;104975;1281;138282;-68
2022/09/02 01:27:27;;;;;;;2.30;1.30;;;;;;;11.94;71.89;98828.69;105185;1282;25589;-68
2022/09/02 01:29:59;;;;;;;1.90;1.10;;;;;;;11.90;71.54;98824.84;105240;1281;138503;-68
2022/09/02 01:32:28;;;;;;;2.60;1.20;;;;;;;11.87;71.86;98829.03;105350;1281;22628;-68
2022/09/02 01:34:56;;;;;;;4.60;1.00;;;;;;;11.87;72.38;98831.81;104949;1281;138197;-68
2022/09/02 01:37:24;;;;;;;2.30;1.20;;;;;;;11.87;71.96;98834.98;105348;1281;24316;-68
2022/09/02 01:39:52;;;;;;;4.10;1.10;;;;;;;11.87;72.11;98838.20;105340;1281;25330;-67
2022/09/02 01:42:20;;;;;;;3.70;1.10;;;;;;;11.85;72.31;98839.91;105308;1281;137661;-68
2022/09/02 01:44:47;;;;;;;1.30;1.20;;;;;;;11.83;72.03;98840.09;105388;1281;22752;-67
2022/09/02 01:47:21;;;;;;;1.90;1.10;;;;;;;11.80;72.25;98843.14;105252;1281;138012;-68
2022/09/02 01:49:49;;;;;;;3.20;1.20;;;;;;;11.74;72.38;98837.73;105311;1281;24156;-68
2022/09/02 01:52:17;;;;;;;1.50;1.20;;;;;;;11.67;72.41;98839.34;105390;1281;25411;-68
2022/09/02 01:54:45;;;;;;;3.70;1.40;;;;;;;11.63;72.55;98838.39;105320;1281;137972;-68
2022/09/02 01:57:13;;;;;;;2.00;1.30;;;;;;;11.60;72.80;98838.27;105330;1281;22560;-67
2022/09/02 01:59:43;;;;;;;1.70;1.30;;;;;;;11.55;72.76;98835.85;105206;1281;137627;-68
2022/09/02 02:02:12;;;;;;;3.00;1.20;;;;;;;11.52;72.79;98837.34;105299;1281;22589;-68
2022/09/02 02:04:39;;;;;;;2.00;1.30;;;;;;;11.45;72.53;98839.83;105393;1281;25320;-67
2022/09/02 02:07:06;;;;;;;4.10;1.30;;;;;;;11.40;72.68;98838.69;105203;1281;138645;-67
2022/09/02 02:09:34;;;;;;;2.40;1.10;;;;;;;11.33;72.97;98835.05;105298;1281;22753;-68
2022/09/02 02:12:03;;;;;;;1.80;1.40;;;;;;;11.30;72.99;98832.27;105215;1283;138239;-67
2022/09/02 02:14:30;;;;;;;2.10;1.10;;;;;;;11.26;73.14;98835.61;105160;1283;25304;-67
2022/09/02 02:16:58;;;;;;;2.90;1.50;;;;;;;11.23;73.17;98837.02;105197;1283;138385;-67
2022/09/02 02:19:25;;;;;;;1.10;1.00;;;;;;;11.18;73.11;98838.34;105036;1282;24305;-67
2022/09/02 02:21:52;;;;;;;2.00;1.70;;;;;;;11.14;73.25;98839.35;104988;1282;22570;-67
2022/09/02 02:24:19;;;;;;;1.90;1.20;;;;;;;11.11;73.66;98839.93;104905;1282;138738;-67
2022/09/02 02:26:46;;;;;;;1.20;1.00;;;;;;;11.07;73.83;98838.31;105212;1281;24234;-67
2022/09/02 02:29:14;;;;;;;3.40;1.30;;;;;;;11.01;73.80;98835.84;105285;1281;138466;-67
2022/09/02 02:31:42;;;;;;;6.40;2.10;;;;;;;10.94;73.78;98836.30;105357;1281;24270;-67
2022/09/02 02:34:12;;;;;;;5.00;1.60;;;;;;;10.87;74.02;98838.58;105329;1281;22546;-67
2022/09/02 02:36:40;;;;;;;5.60;1.20;;;;;;;10.83;74.36;98832.05;105193;1281;138133;-67
2022/09/02 02:39:10;;;;;;;2.30;1.40;;;;;;;10.78;74.57;98827.36;105404;1281;23828;-67
2022/09/02 02:41:39;;;;;;;1.70;1.10;;;;;;;10.76;74.59;98830.00;105251;1283;138807;-67
2022/09/02 02:44:06;;;;;;;2.70;1.20;;;;;;;10.76;74.79;98824.92;105379;1281;23956;-67
2022/09/02 02:46:35;;;;;;;2.30;1.20;;;;;;;10.76;74.99;98825.90;105360;1281;25397;-67
2022/09/02 02:49:04;;;;;;;1.70;1.10;;;;;;;10.75;74.63;98823.27;105237;1281;138363;-67
2022/09/02 02:51:32;;;;;;;;;;;;;;;10.74;74.79;98819.84;105413;1281;22522;-67
2022/09/02 02:54:00;;;;;;;3.20;1.40;;;;;;;10.71;74.73;98819.52;105298;1281;124683;-67
2022/09/02 02:56:29;;;;;;;2.90;1.20;;;;;;;10.67;74.81;98818.27;105370;1281;22574;-67
2022/09/02 02:59:00;;;;;;;2.10;1.20;;;;;;;10.63;74.84;98818.36;105241;1281;138537;-67
2022/09/02 03:01:29;;;;;;;4.10;1.10;;;;;;;10.59;74.85;98821.42;105074;1283;22557;-67
2022/09/02 03:03:56;;;;;;;3.20;1.20;;;;;;;10.55;74.90;98821.61;105078;1283;25208;-67
2022/09/02 03:06:24;;;;;;;1.80;1.20;;;;;;;10.51;75.09;98816.61;105262;1281;137720;-67
2022/09/02 03:08:52;;;;;;;1.60;1.30;;;;;;;10.47;74.99;98819.94;105293;1281;22597;-67
2022/09/02 03:11:21;;;;;;;1.90;1.20;;;;;;;10.45;75.17;98823.20;104989;1283;137759;-67
2022/09/02 03:13:54;;;;;;;1.90;1.10;;;;;;;10.41;75.13;98818.66;105401;1281;22540;-67
2022/09/02 03:16:21;;;;;;;2.40;1.30;;;;;;;10.37;75.25;98814.45;105158;1281;22573;-67
2022/09/02 03:18:49;;;;;;;2.90;1.40;;;;;;;10.34;75.37;98816.94;104893;1283;138793;-67
2022/09/02 03:21:17;;;;;;;4.10;1.50;;;;;;;10.33;75.56;98815.94;105350;1283;22560;-67
2022/09/02 03:23:45;;;;;;;3.00;1.40;;;;;;;10.34;75.77;98815.09;105038;1281;137853;-67
2022/09/02 03:26:18;;;;;;;1.90;1.10;;;;;;;10.34;76.06;98820.29;105399;1281;25379;-67
2022/09/02 03:28:47;;;;;;;1.40;1.10;;;;;;;10.35;75.99;98825.05;105353;1281;22623;-67
2022/09/02 03:31:18;;;;;;;2.60;1.30;;;;;;;10.35;75.92;98820.73;104989;1281;137825;-67
2022/09/02 03:33:50;;;;;;;2.00;1.00;;;;;;;10.34;75.91;98818.86;105304;1281;22628;-67
2022/09/02 03:36:24;;;;;;;2.70;1.30;;;;;;;10.35;75.96;98821.45;105274;1281;138217;-67
2022/09/02 03:38:54;;;;;;;1.70;0.90;;;;;;;10.37;75.98;98822.54;105329;1281;25254;-67
2022/09/02 03:41:22;;;;;;;2.60;1.20;;;;;;;10.39;75.89;98820.89;105276;1281;138226;-67
2022/09/02 03:43:50;;;;;;;1.70;1.10;;;;;;;10.40;75.93;98821.14;105167;1283;24326;-67
2022/09/02 03:46:17;;;;;;;3.70;1.30;;;;;;;10.41;76.11;98828.14;105138;1283;24322;-67
2022/09/02 03:48:48;;;;;;;3.70;1.10;;;;;;;10.39;75.88;98825.86;104906;1283;137629;-67
2022/09/02 03:51:15;;;;;;;2.00;1.10;;;;;;;10.38;75.91;98828.42;105319;1283;31668;-68
2022/09/02 03:53:41;;;;;;;1.80;1.10;;;;;;;10.37;75.89;98827.98;105181;1283;138224;-68
2022/09/02 03:56:11;;;;;;;2.70;1.50;;;;;;;10.38;75.84;98831.38;104906;1283;24271;-68
2022/09/02 03:58:41;;;;;;;3.00;1.80;;;;;;;10.38;75.74;98830.52;105067;1282;25366;-68
2022/09/02 04:01:17;;;;;;;2.20;1.50;;;;;;;10.39;75.74;98832.60;104962;1283;138165;-67
2022/09/02 04:03:45;;;;;;;5.10;1.50;;;;;;;10.40;75.69;98833.93;105313;1283;22763;-67
2022/09/02 04:06:15;;;;;;;4.50;1.90;;;;;;;10.39;75.78;98835.88;104984;1282;137766;-68
2022/09/02 04:08:44;;;;;;;4.20;1.50;;;;;;;10.38;75.91;98836.77;105363;1281;24420;-68
2022/09/02 04:11:16;;;;;;;3.40;1.20;;;;;;;10.36;75.85;98840.75;105253;1280;138652;-68
2022/09/02 04:13:47;;;;;;;4.00;1.40;;;;;;;10.35;76.04;98843.64;105330;1280;24428;-68
2022/09/02 04:16:20;;;;;;;5.10;1.90;;;;;;;10.37;76.13;98845.23;105393;1280;24281;-68
2022/09/02 04:18:48;;;;;;;3.30;1.20;;;;;;;10.37;76.03;98848.06;105326;1280;137372;-68
2022/09/02 04:21:15;;;;;;;3.20;1.50;;;;;;;10.35;75.96;98850.37;105274;1283;22550;-67
2022/09/02 04:23:43;;;;;;;2.30;1.40;;;;;;;10.35;75.91;98849.98;105247;1281;137429;-68
2022/09/02 04:26:15;;;;;;;2.70;1.50;;;;;;;10.31;75.83;98854.83;105321;1281;24255;-68
2022/09/02 04:28:43;;;;;;;3.50;1.30;;;;;;;10.30;76.10;98857.19;105334;1281;25232;-68
2022/09/02 04:31:13;;;;;;;5.40;1.70;;;;;;;10.30;76.14;98861.08;105290;1280;138477;-67
2022/09/02 04:33:40;;;;;;;3.80;1.60;;;;;;;10.32;76.18;98860.19;105344;1281;22557;-68
2022/09/02 04:36:13;;;;;;;6.10;1.30;;;;;;;10.36;76.26;98860.84;105311;1281;137941;-67
2022/09/02 04:38:40;;;;;;;3.00;1.50;;;;;;;10.38;76.02;98861.56;105351;1281;24298;-68
2022/09/02 04:41:14;;;;;;;3.40;1.50;;;;;;;10.40;76.21;98858.81;105246;1281;137791;-68
2022/09/02 04:43:41;;;;;;;2.80;1.30;;;;;;;10.42;76.19;98861.66;105415;1281;22550;-68
2022/09/02 04:46:12;;;;;;;5.60;2.40;;;;;;;10.44;76.17;98860.27;105401;1281;24440;-68
2022/09/02 04:48:42;;;;;;;3.30;1.80;;;;;;;10.48;76.19;98865.54;105612;1283;139052;-68
2022/09/02 04:51:28;;;;;;;3.10;1.40;;;;;;;10.52;76.20;98860.30;105546;1283;22740;-68
2022/09/02 04:53:57;;;;;;;4.30;1.70;;;;;;;10.55;76.05;98861.55;105311;1283;137831;-67
2022/09/02 04:56:28;;;;;;;2.70;1.40;;;;;;;10.59;76.04;98863.36;105529;1281;25535;-68
2022/09/02 04:58:56;;;;;;;2.10;1.20;;;;;;;10.62;76.02;98865.23;105592;1280;22563;-68
2022/09/02 05:01:27;;;;;;;5.30;1.80;;;;;;;10.66;76.17;98866.73;105673;1283;25236;-67
2022/09/02 05:03:55;;;;;;;4.70;1.90;;;;;;;10.67;76.13;98867.91;105243;1283;22550;-67
2022/09/02 05:06:26;;;;;;;5.30;1.40;;;;;;;10.70;76.20;98868.37;105269;1283;138259;-67
2022/09/02 05:08:58;;;;;;;1.70;1.60;;;;;;;10.73;75.91;98867.73;105156;1283;24277;-67
2022/09/02 05:11:27;;;;;;;4.00;1.80;;;;;;;10.79;75.88;98865.37;105107;1283;137858;-67
2022/09/02 05:13:57;;;;;;;4.00;1.90;;;;;;;10.86;76.16;98864.45;105120;1280;22665;-66
2022/09/02 05:16:29;;;;;;;3.00;1.70;;;;;;;10.92;76.07;98861.36;105353;1282;22537;-69
2022/09/02 05:18:57;;;;;;;7.80;1.90;;;;;;;10.96;75.85;98854.58;105298;1282;137775;-69
2022/09/02 05:21:25;;;;;;;5.00;1.40;;;;;;;10.99;75.69;98857.26;105330;1283;22575;-69
2022/09/02 05:23:52;;;;;;;5.40;1.60;;;;;;;11.02;75.51;98860.17;105232;1283;138264;-69
2022/09/02 05:26:21;;;;;;;4.70;1.70;;;;;;;11.07;75.13;98860.55;105644;1281;24232;-69
2022/09/02 05:28:49;;;;;;;3.10;1.60;;;;;;;11.12;75.01;98855.92;105346;1281;25303;-69
2022/09/02 05:31:18;;;;;;;3.90;1.40;;;;;;;11.18;75.02;98858.36;105341;1281;138163;-69
2022/09/02 05:33:46;;;;;;;4.60;1.80;;;;;;;11.25;74.72;98858.81;105477;1281;22732;-68
2022/09/02 05:36:19;;;;;;;4.60;1.60;;;;;;;11.31;74.82;98857.20;105426;1281;137509;-68
2022/09/02 05:38:48;;;;;;;2.20;1.40;;;;;;;11.33;74.86;98853.48;105648;1281;23337;-68
2022/09/02 05:41:22;;;;;;;2.50;1.50;;;;;;;11.36;74.49;98856.39;105621;1281;137563;-68
2022/09/02 05:43:55;;;;;;;2.00;1.10;;;;;;;11.40;74.73;98855.93;105357;1281;22534;-68
2022/09/02 05:46:23;;;;;;;3.90;1.30;;;;;;;11.45;74.40;98856.80;105488;1281;22736;-68
2022/09/02 05:49:06;;;;;;;2.20;1.40;;;;;;;11.51;74.45;98855.66;105494;1280;137745;-68
2022/09/02 05:51:44;;;;;;;2.90;1.50;;;;;;;11.57;74.34;98850.88;105447;1281;24351;-68
2022/09/02 05:54:33;;;;;;;3.30;1.60;;;;;;;11.63;74.02;98852.35;105395;1281;137483;-68
2022/09/02 05:57:11;;;;;;;3.20;1.40;;;;;;;11.68;73.78;98856.32;105477;1281;24259;-68
2022/09/02 05:59:43;;;;;;;3.60;1.90;;;;;;;11.70;73.77;98857.14;105634;1281;137481;-67
2022/09/02 06:02:15;;;;;;;4.60;1.60;;;;;;;11.72;73.64;98853.80;105465;1281;23926;-67
2022/09/02 06:04:47;;;;;;;3.60;1.80;;;;;;;11.78;73.99;98852.91;105431;1283;25228;-68
2022/09/02 06:07:16;;;;;;;3.80;1.80;;;;;;;11.84;74.02;98855.66;105720;1281;137762;-68
2022/09/02 06:09:44;;;;;;;4.00;1.70;;;;;;;11.93;73.92;98859.13;105507;1281;22877;-67
2022/09/02 06:12:13;;;;;;;5.50;1.90;;;;;;;12.00;73.41;98859.77;105335;1283;137660;-68
2022/09/02 06:14:41;;;;;;;3.90;1.60;;;;;;;12.05;73.38;98860.08;105262;1281;22555;-67
2022/09/02 06:17:09;;;;;;;5.00;2.10;;;;;;;12.12;73.64;98857.57;105304;1280;138318;-68
2022/09/02 06:19:43;;;;;;;3.70;1.50;;;;;;;12.19;73.30;98860.64;105342;1283;25248;-68
2022/09/02 06:22:10;;;;;;;3.70;2.30;;;;;;;12.22;73.06;98858.30;105422;1280;22554;-68
2022/09/02 06:24:38;;;;;;;4.90;2.10;;;;;;;12.26;72.86;98858.98;105461;1278;138608;-68
2022/09/02 06:27:11;;;;;;;3.00;1.70;;;;;;;12.30;72.94;98862.17;105678;1280;22719;-68
2022/09/02 06:29:40;;;;;;;8.50;2.10;;;;;;;12.35;72.94;98865.35;105617;1280;137889;-68
2022/09/02 06:32:09;;;;;;;3.80;2.10;;;;;;;12.39;72.79;98860.50;105178;1283;24227;-68
2022/09/02 06:34:38;;;;;;;5.80;2.10;;;;;;;12.45;72.91;98865.23;105427;1280;23925;-67
2022/09/02 06:37:05;;;;;;;8.90;2.70;;;;;;;12.51;72.86;98864.54;105424;1280;138546;-68
2022/09/02 06:39:32;;;;;;;6.00;1.80;;;;;;;12.58;72.97;98867.94;105537;1280;24395;-68
2022/09/02 06:41:59;;;;;;;8.10;1.90;;;;;;;12.65;72.58;98870.39;105188;1283;138110;-68
2022/09/02 06:44:28;;;;;;;4.60;1.60;;;;;;;12.72;72.25;98874.66;105396;1281;22598;-68
2022/09/02 06:46:58;;;;;;;3.00;1.80;;;;;;;12.79;71.87;98871.98;105342;1281;22543;-68
2022/09/02 06:49:27;;;;;;;3.70;2.40;;;;;;;12.86;71.98;98868.09;105399;1281;137852;-68
2022/09/02 06:51:56;;;;;;;5.40;2.10;;;;;;;12.94;72.24;98871.23;105344;1283;22554;-68
2022/09/02 06:54:27;;;;;;;6.10;2.00;;;;;;;13.03;71.66;98874.15;105150;1283;138197;-68
2022/09/02 06:57:04;;;;;;;5.70;1.90;;;;;;;13.12;71.55;98868.41;105323;1283;24419;-68
2022/09/02 06:59:33;;;;;;;2.90;1.60;;;;;;;13.18;71.27;98865.22;105228;1283;138071;-68
2022/09/02 07:02:00;;;;;;;3.40;2.00;;;;;;;13.24;71.11;98867.30;105302;1283;26436;-67
2022/09/02 07:07:17;;;;;;;5.10;2.20;;;;;;;13.40;70.58;98867.42;105251;1281;138299;-68
2022/09/02 07:09:52;;;;;;;3.30;1.80;;;;;;;13.48;70.54;98867.23;105362;1281;25242;-68
2022/09/02 07:12:18;;;;;;;3.30;1.70;;;;;;;13.57;70.73;98868.35;105701;1281;137597;-69
2022/09/02 07:14:55;;;;;;;3.80;2.00;;;;;;;13.67;70.48;98870.12;105565;1280;22553;-67
2022/09/02 07:17:27;;;;;;;3.50;1.50;;;;;;;13.75;70.32;98869.49;105292;1280;137993;-67
2022/09/02 07:19:59;;;;;;;3.80;1.50;;;;;;;13.82;69.73;98865.36;105390;1280;22547;-67
2022/09/02 07:22:28;;;;;;;3.50;1.80;;;;;;;13.93;69.48;98864.43;105419;1280;22537;-68
2022/09/02 07:24:58;;;;;;;2.70;1.80;;;;;;;14.02;69.57;98861.92;105367;1280;137886;-68
2022/09/02 07:27:26;;;;;;;2.60;1.70;;;;;;;14.12;69.67;98863.00;105420;1280;22608;-68
2022/09/02 07:29:55;;;;;;;5.70;1.80;;;;;;;14.23;69.69;98858.95;105321;1280;137580;-68
2022/09/02 07:32:22;;;;;;;2.90;1.60;;;;;;;14.35;69.60;98861.48;105422;1280;23137;-68
2022/09/02 07:34:49;;;;;;;5.80;1.70;;;;;;;14.46;69.38;98859.65;105333;1281;24259;-68
2022/09/02 07:37:17;;;;;;;2.30;1.50;;;;;;;14.57;69.12;98861.79;105268;1281;137591;-68
2022/09/02 07:39:44;;;;;;;3.40;1.60;;;;;;;14.68;68.50;98862.77;105344;1281;22554;-68
2022/09/02 07:42:12;;;;;;;6.00;1.70;;;;;;;14.78;68.11;98861.54;105255;1281;138199;-67
2022/09/02 07:44:39;;;;;;;3.50;1.70;;;;;;;14.86;67.29;98866.21;105125;1283;22495;-69
2022/09/02 07:47:07;;;;;;;2.90;1.50;;;;;;;14.93;66.81;98868.34;105404;1281;137740;-68
2022/09/02 07:49:35;;;;;;;3.50;1.50;;;;;;;15.01;67.06;98866.20;105381;1283;22546;-68
2022/09/02 07:52:05;;;;;;;2.20;1.10;;;;;;;15.11;66.50;98867.48;105173;1283;25252;-68
2022/09/02 07:54:32;;;;;;;5.20;1.60;;;;;;;15.20;66.66;98868.80;105213;1283;137903;-68
2022/09/02 07:57:00;;;;;;;2.60;1.10;;;;;;;15.32;66.09;98865.84;105344;1281;25313;-68
2022/09/02 07:59:26;;;;;;;1.70;1.20;;;;;;;15.43;65.04;98862.16;105304;1281;138723;-69
2022/09/02 08:01:55;;;;;;;3.60;1.30;;;;;;;15.52;64.57;98859.79;105359;1280;22563;-68
2022/09/02 08:04:23;;;;;;;2.70;0.90;;;;;;;15.63;64.43;98859.13;105385;1280;25478;-68
2022/09/02 08:06:53;;;;;;;4.00;1.50;;;;;;;15.74;63.47;98859.40;105216;1283;138376;-68
2022/09/02 08:09:28;;;;;;;;;;;;;;;15.81;62.31;98854.83;105053;1283;24352;-68
2022/09/02 08:11:55;;;;;;;2.30;1.50;;;;;;;15.86;62.31;98851.21;105255;1280;124461;-68
2022/09/02 08:14:28;;;;;;;3.10;1.20;;;;;;;15.95;62.73;98851.45;105792;1280;23321;-69
2022/09/02 08:16:56;;;;;;;2.90;1.50;;;;;;;16.05;63.08;98850.45;105670;1280;24324;-68
2022/09/02 08:19:25;;;;;;;1.60;0.90;;;;;;;16.19;62.97;98850.80;105447;1280;137493;-68
2022/09/02 08:21:52;;;;;;;1.40;0.90;;;;;;;16.33;62.37;98850.55;105389;1281;24528;-68
2022/09/02 08:24:19;;;;;;;1.90;0.90;;;;;;;16.46;61.83;98851.38;105323;1280;138326;-68
2022/09/02 08:26:46;;;;;;;1.50;0.90;;;;;;;16.60;61.26;98850.73;105380;1280;22553;-68
2022/09/02 08:29:15;;;;;;;1.20;0.90;;;;;;;16.71;60.59;98846.93;105246;1281;137826;-68
2022/09/02 08:31:42;;;;;;;1.40;1.00;;;;;;;16.80;60.04;98849.02;105202;1280;24653;-68
2022/09/02 08:34:09;;;;;;;1.40;1.00;;;;;;;16.90;59.86;98848.98;105306;1281;23928;-67
2022/09/02 08:36:37;;;;;;;2.20;0.80;;;;;;;17.01;59.63;98849.19;105263;1281;137584;-68
2022/09/02 08:39:04;;;;;;;3.60;1.00;;;;;;;17.11;59.05;98844.65;105415;1280;23059;-68
2022/09/02 08:41:57;;;;;;;1.70;1.00;;;;;;;17.23;58.46;98845.84;105327;1281;138803;-68
2022/09/02 08:44:24;;;;;;;2.90;0.70;;;;;;;17.37;58.00;98837.16;105403;1281;22631;-68
2022/09/02 08:46:58;;;;;;;2.60;0.70;;;;;;;17.51;57.48;98835.67;105339;1283;22538;-68
2022/09/02 08:49:33;;;;;;;3.60;1.60;;;;;;;17.61;56.30;98834.64;105336;1281;137606;-68
2022/09/02 08:52:02;;;;;;;1.50;0.70;;;;;;;17.73;56.50;98836.74;105088;1283;22557;-67
2022/09/02 08:54:32;;;;;;;1.20;0.60;;;;;;;17.87;55.34;98829.14;105203;1283;137565;-68
2022/09/02 08:56:59;;;;;;;2.50;1.10;;;;;;;17.98;54.27;98826.23;105337;1281;22778;-67
2022/09/02 08:59:30;;;;;;;2.90;0.80;;;;;;;18.10;54.32;98822.40;105277;1281;137920;-67
2022/09/02 09:02:22;;;;;;;1.70;1.10;;;;;;;18.21;53.47;98822.21;105761;1281;22744;-68
2022/09/02 09:05:00;;;;;;;2.20;0.70;;;;;;;18.35;53.06;98819.90;105587;1280;25577;-68
2022/09/02 09:07:44;;;;;;;3.80;0.80;;;;;;;18.54;52.69;98816.08;105624;1280;31478;-66
2022/09/02 09:10:41;;;;;;;5.20;0.90;;;;;;;18.73;52.59;98812.58;105599;1280;25305;-67
2022/09/02 09:13:18;;;;;;;2.80;0.90;;;;;;;18.95;52.57;98815.89;105382;1280;137678;-66
2022/09/02 09:15:58;;;;;;;2.00;0.80;;;;;;;19.16;51.31;98818.64;105392;1280;25292;-66
2022/09/02 09:18:36;;;;;;;3.20;0.70;;;;;;;19.30;50.60;98818.60;105192;1280;137568;-66
2022/09/02 09:21:03;;;;;;;1.50;0.30;;;;;;;19.40;49.42;98810.59;105294;1280;22686;-66
2022/09/02 09:23:33;;;;;;;3.70;1.10;;;;;;;19.49;48.12;98810.46;105172;1281;138180;-67
2022/09/02 09:26:12;;;;;;;3.40;0.70;;;;;;;19.55;46.56;98805.48;105570;1281;25400;-67
2022/09/02 09:28:43;;;;;;;;;;;;;;;19.57;46.54;98807.46;105639;1281;24919;-66
2022/09/02 09:31:14;;;;;;;1.20;0.40;;;;;;;19.58;47.15;98806.90;105193;1280;123965;-66
2022/09/02 09:34:00;;;;;;;2.00;0.40;;;;;;;19.65;47.03;98807.39;105454;1280;22560;-66
2022/09/02 09:36:38;;;;;;;1.00;0.60;;;;;;;19.69;45.98;98804.54;105322;1280;137741;-67
2022/09/02 09:39:38;;;;;;;2.30;0.40;;;;;;;19.75;45.75;98804.42;105362;1281;23927;-67
2022/09/02 09:42:13;;;;;;;0.90;0.40;;;;;;;19.83;45.27;98801.56;105162;1280;137733;-66
2022/09/02 09:44:46;;;;;;;2.60;0.70;;;;;;;19.91;45.68;98808.41;105324;1280;22560;-66
2022/09/02 09:47:22;;;;;;;1.60;0.70;;;;;;;20.03;45.69;98800.42;105323;1281;137825;-67
2022/09/02 09:49:52;;;;;;;2.10;0.50;;;;;;;20.20;44.92;98799.37;105487;1283;24228;-67
2022/09/02 09:52:25;;;;;;;0.30;0.30;;;;;;;20.31;44.16;98798.24;105523;1281;22535;-66
2022/09/02 09:55:21;;;;;;;1.60;0.60;;;;;;;20.39;43.81;98796.63;105406;1283;137504;-67
2022/09/02 09:57:49;;;;;;;2.60;0.80;;;;;;;20.48;43.64;98793.38;105211;1281;25340;-67
2022/09/02 10:00:20;;;;;;;3.20;0.50;;;;;;;20.54;43.07;98788.13;105353;1279;137656;-66
2022/09/02 10:02:50;;;;;;;0.90;0.50;;;;;;;20.61;42.74;98782.87;105280;1281;22560;-67
2022/09/02 10:05:28;;;;;;;1.30;0.60;;;;;;;20.67;42.63;98785.84;105320;1281;138073;-66
2022/09/02 10:08:23;;;;;;;1.70;0.40;;;;;;;20.74;42.48;98779.91;105311;1280;25381;-66
2022/09/02 10:11:04;;;;;;;3.00;0.60;;;;;;;20.82;41.85;98778.42;104635;1289;25240;-66
2022/09/02 10:13:36;;;;;;;2.10;0.70;;;;;;;20.84;41.98;98783.77;104707;1289;22547;-66
2022/09/02 10:16:22;;;;;;;0.60;0.30;;;;;;;20.81;42.09;98779.27;104956;1287;23753;-65
2022/09/02 10:19:01;;;;;;;0.70;0.40;;;;;;;20.87;41.56;98779.56;104554;1288;137569;-66
2022/09/02 10:21:49;;;;;;;2.60;0.40;;;;;;;20.78;41.44;98779.44;105931;1286;22563;-67
2022/09/02 10:24:35;;;;;;;0.90;0.40;;;;;;;20.94;41.34;98778.15;104685;1289;137828;-66
2022/09/02 10:27:10;;;;;;;0.80;0.50;;;;;;;20.93;41.36;98774.85;104522;1288;26645;-66
2022/09/02 10:29:49;;;;;;;1.30;0.50;;;;;;;20.87;40.58;98769.70;104802;1287;137717;-66
2022/09/02 10:32:19;;;;;;;1.20;0.60;;;;;;;20.93;40.69;98767.53;105112;1288;24270;-67
2022/09/02 10:35:37;;;;;;;2.30;0.30;;;;;;;20.96;41.59;98771.15;104811;1288;23396;-66
2022/09/02 10:38:41;;;;;;;3.20;0.50;;;;;;;20.81;40.85;98770.30;104615;1288;24608;-66
2022/09/02 10:41:22;;;;;;;3.40;0.50;;;;;;;20.67;40.90;98766.23;104608;1289;138280;-66
2022/09/02 10:43:58;;;;;;;1.80;0.60;;;;;;;20.51;41.40;98768.88;104613;1289;23975;-66
2022/09/02 10:46:34;;;;;;;1.40;0.50;;;;;;;20.58;41.69;98763.34;104770;1288;22540;-67
2022/09/02 10:49:10;;;;;;;5.30;0.70;;;;;;;20.63;42.26;98752.31;105069;1284;138665;-66
2022/09/02 10:51:54;;;;;;;5.00;0.70;;;;;;;20.59;41.88;98751.86;105291;1281;23197;-66
2022/09/02 10:54:24;;;;;;;1.40;0.40;;;;;;;20.63;41.75;98756.98;105194;1281;137456;-66
2022/09/02 10:57:26;;;;;;;1.40;0.50;;;;;;;20.71;41.54;98748.50;105472;1281;24330;-66
2022/09/02 11:00:02;;;;;;;1.40;0.50;;;;;;;20.97;40.97;98745.93;104870;1283;138460;-66
2022/09/02 11:02:50;;;;;;;1.50;0.50;;;;;;;21.26;40.96;98745.84;105186;1283;23945;-66
2022/09/02 11:05:24;;;;;;;2.00;0.40;;;;;;;21.58;39.50;98746.60;105294;1283;138504;-65
2022/09/02 11:08:08;;;;;;;5.00;0.60;;;;;;;21.74;39.42;98745.95;105304;1281;24277;-66
2022/09/02 11:11:00;;;;;;;2.10;0.70;;;;;;;21.91;39.41;98739.53;105314;1280;29486;-66
2022/09/02 11:13:58;;;;;;;1.50;0.60;;;;;;;22.08;38.98;98737.79;105326;1281;22553;-65
2022/09/02 11:16:34;;;;;;;2.30;0.50;;;;;;;22.30;37.85;98738.44;105178;1283;25291;-65
2022/09/02 11:19:23;;;;;;;2.00;0.60;;;;;;;22.42;37.41;98737.36;104982;1283;137650;-65
2022/09/02 11:22:02;;;;;;;;;;;;;;;22.30;37.19;98737.83;105432;1283;22838;-66
2022/09/02 11:24:32;;;;;;;1.20;0.40;;;;;;;22.04;37.13;98741.70;105141;1281;123896;-65
2022/09/02 11:27:23;;;;;;;0.90;0.50;;;;;;;22.01;37.20;98742.23;105426;1280;25495;-65
2022/09/02 11:29:57;;;;;;;1.50;0.40;;;;;;;22.05;37.17;98738.73;105100;1281;138204;-65
2022/09/02 11:32:44;;;;;;;1.20;0.40;;;;;;;22.04;36.44;98740.00;105271;1281;24303;-65
2022/09/02 11:35:25;;;;;;;1.90;0.40;;;;;;;22.10;36.45;98735.96;105180;1281;138480;-65
2022/09/02 11:38:19;;;;;;;1.70;0.40;;;;;;;22.12;36.45;98731.70;105272;1283;22550;-65
2022/09/02 11:41:14;;;;;;;0.50;0.40;;;;;;;21.85;35.99;98724.63;105259;1281;22538;-65
2022/09/02 11:43:57;;;;;;;1.60;0.30;;;;;;;21.55;36.67;98727.23;105303;1281;24012;-65
2022/09/02 11:46:24;;;;;;;0.40;0.40;;;;;;;21.37;36.95;98724.51;105260;1281;22575;-66
2022/09/02 11:49:19;;;;;;;1.10;0.40;;;;;;;21.26;36.98;98720.86;105062;1281;137739;-67